MET'MAP v2.0
soon released !

Expected late october,
this new version will be
more efficient, smarter,
and hosted on a brand new
server x3 powerfull...
...and still free !


Not compatible ?
Try the mobile version !

LOG IN : | Subscribe | Disclaimer | Who is Orbifly ? |
ICAO code :

TAF - EGNO Warton Preston - 24 Feb 2020 13:29 UTC - Data Source NOAA   


- Airport Elevation : 55 ft
- No reported NOTAMs.


EGNO - Warton Preston

Latest METAR recorded : 2015/08/11 07:50 EGNO 110750Z 25007KT 9999 SCT016 15/12 Q1019
TAF TAF EGNO
Valid from the 24 at 12:00 until the 24 at 19:00 UTC


241108Z 2412/2419 26026KT 9999 FEW012 SCT020
TEMPO 2412/2419 27030G43KT
PROB30
TEMPO 2412/2415 BKN012
TEMPO 2417/2419 7000 SHRA

Source NOAA
ATIS : +44 1772 856 060


MET'MAP, your aeronautical weather chart ! - Copyright ORBIFLY December 2007

Programming & Development : Alexandra Zaïnal
Co-Developer : Marc-Olivier Méhu
Technical & hardware support : Manuel Goepfert
Concept & Financing : Baudouin d'Aumeries